Time;durP1;ratioP1;P1;durP2;ratioP2;P2;SDS_P1;SDS_P2;PMS_P1;PMS_P2;Temp;Humidity;BMP_temperature;BMP_pressure;BME280_temperature;BME280_humidity;BME280_pressure;Samples;Min_cycle;Max_cycle;Signal;HPM_P1;HPM_P2
2024/04/02 00:00:04;;;;;;;13.85;4.63;;;;;;;15.54;74.13;99847.03;5063810;28;20567;-74
2024/04/02 00:02:29;;;;;;;14.60;4.35;;;;;;;15.54;74.43;99834.03;5032576;28;20064;-74
2024/04/02 00:04:55;;;;;;;15.55;3.92;;;;;;;15.65;74.92;99857.50;5030824;28;20068;-74
2024/04/02 00:07:21;;;;;;;14.98;5.05;;;;;;;15.60;75.24;99849.69;5030274;28;20662;-73
2024/04/02 00:09:47;;;;;;;17.25;4.55;;;;;;;15.61;75.90;99843.59;5031971;28;20545;-74
2024/04/02 00:12:12;;;;;;;13.77;4.97;;;;;;;15.66;76.56;99849.72;5028525;28;20046;-74
2024/04/02 00:14:38;;;;;;;13.52;4.50;;;;;;;15.37;76.91;99811.34;5029351;28;20107;-74
2024/04/02 00:17:03;;;;;;;19.77;5.32;;;;;;;15.35;78.27;99820.91;5029922;28;20060;-73
2024/04/02 00:19:29;;;;;;;21.67;5.13;;;;;;;15.53;78.72;99846.16;5029458;28;20033;-73
2024/04/02 00:21:55;;;;;;;23.55;5.38;;;;;;;15.46;79.22;99838.28;5029083;28;20060;-73
2024/04/02 00:24:20;;;;;;;18.58;5.15;;;;;;;15.44;79.82;99850.41;5028787;28;20060;-74
2024/04/02 00:26:46;;;;;;;17.48;4.47;;;;;;;15.30;80.50;99835.59;5028857;28;20088;-73
2024/04/02 00:29:11;;;;;;;15.70;4.80;;;;;;;15.16;81.87;99826.81;4995514;28;20138;-74
2024/04/02 00:31:37;;;;;;;24.08;5.45;;;;;;;15.17;82.30;99834.63;5029058;28;20120;-74
2024/04/02 00:34:02;;;;;;;19.38;5.32;;;;;;;15.11;83.29;99826.75;5028777;28;20041;-74
2024/04/02 00:36:28;;;;;;;21.33;5.10;;;;;;;14.94;84.16;99807.56;5028778;28;20120;-74
2024/04/02 00:38:53;;;;;;;16.77;4.57;;;;;;;14.85;84.82;99809.25;5028907;28;20092;-73
2024/04/02 00:41:19;;;;;;;23.55;5.80;;;;;;;14.68;85.03;99785.69;5029495;28;20033;-74
2024/04/02 00:43:44;;;;;;;23.80;5.43;;;;;;;14.74;85.90;99795.25;5030235;28;20112;-74
2024/04/02 00:46:10;;;;;;;15.20;5.03;;;;;;;14.75;86.67;99817.78;5031167;28;20120;-74
2024/04/02 00:48:35;;;;;;;16.83;5.63;;;;;;;14.64;87.17;99801.19;5031157;28;20033;-73
2024/04/02 00:51:01;;;;;;;20.50;5.95;;;;;;;14.67;87.43;99798.69;5031112;28;20442;-73
2024/04/02 00:53:27;;;;;;;21.35;5.88;;;;;;;14.59;88.21;99801.16;5031108;28;20064;-74
2024/04/02 00:55:53;;;;;;;16.05;5.65;;;;;;;14.53;89.04;99796.78;5031238;28;20480;-73
2024/04/02 00:58:19;;;;;;;17.55;5.47;;;;;;;14.51;89.00;99806.28;5031231;28;20040;-73
2024/04/02 01:00:45;;;;;;;19.00;5.93;;;;;;;14.40;88.84;99789.72;5062309;28;20049;-74
2024/04/02 01:03:12;;;;;;;21.38;6.18;;;;;;;14.38;88.43;99781.91;5031572;28;20025;-74
2024/04/02 01:05:38;;;;;;;21.40;6.57;;;;;;;14.45;88.07;99788.03;5031068;28;20037;-74
2024/04/02 01:08:04;;;;;;;22.20;6.10;;;;;;;14.48;87.37;99787.19;5063070;28;20030;-73
2024/04/02 01:10:33;;;;;;;18.77;5.68;;;;;;;14.59;86.89;99800.28;5030916;28;20052;-73
2024/04/02 01:12:59;;;;;;;22.50;6.27;;;;;;;14.63;86.44;99800.34;5030826;28;20037;-74
2024/04/02 01:15:25;;;;;;;22.52;5.95;;;;;;;14.67;85.82;99806.47;5030696;28;20056;-74
2024/04/02 01:17:50;;;;;;;20.38;5.75;;;;;;;14.77;85.00;99812.63;5031089;28;20562;-74
2024/04/02 01:20:16;;;;;;;21.92;5.72;;;;;;;14.87;84.11;99811.84;5030978;28;20025;-74
2024/04/02 01:22:41;;;;;;;27.48;6.47;;;;;;;14.98;83.79;99812.81;5031436;28;20037;-74
2024/04/02 01:25:09;;;;;;;21.70;6.13;;;;;;;14.86;82.90;99773.72;5029474;28;20100;-74
2024/04/02 01:27:35;;;;;;;21.35;5.13;;;;;;;15.16;82.00;99808.59;5030452;28;20064;-74
2024/04/02 01:30:01;;;;;;;16.98;6.05;;;;;;;15.19;81.19;99809.50;5030483;28;20036;-75
2024/04/02 01:32:26;;;;;;;15.23;5.30;;;;;;;15.20;81.11;99821.66;5030577;28;20022;-75
2024/04/02 01:34:52;;;;;;;27.20;5.32;;;;;;;15.22;81.32;99823.41;5029991;28;20462;-75
2024/04/02 01:37:17;;;;;;;19.70;5.10;;;;;;;15.27;82.05;99819.97;5030551;28;20029;-75
2024/04/02 01:39:43;;;;;;;21.42;5.65;;;;;;;15.33;82.88;99830.41;5030546;28;20121;-76
2024/04/02 01:42:08;;;;;;;23.40;4.93;;;;;;;15.36;82.04;99821.75;5031109;28;20025;-75
2024/04/02 01:44:34;;;;;;;19.98;5.45;;;;;;;15.27;81.01;99798.28;5029118;28;20037;-75
2024/04/02 01:47:00;;;;;;;17.40;4.30;;;;;;;15.40;81.61;99814.84;5031172;28;20391;-73
2024/04/02 01:49:25;;;;;;;16.65;4.68;;;;;;;15.21;80.26;99793.91;5013347;28;20034;-74
2024/04/02 01:51:50;;;;;;;15.35;4.55;;;;;;;14.75;81.21;99744.19;5024307;28;20026;-74
2024/04/02 01:54:16;;;;;;;17.42;4.82;;;;;;;15.26;81.70;99802.59;5029814;28;20021;-74
2024/04/02 01:56:42;;;;;;;17.77;5.00;;;;;;;15.33;81.36;99803.53;5029504;28;20033;-74
2024/04/02 01:59:07;;;;;;;14.35;4.65;;;;;;;15.38;81.78;99814.84;5030325;28;20395;-73
2024/04/02 02:01:33;;;;;;;14.90;4.95;;;;;;;15.33;81.35;99809.59;5029160;28;20407;-73
2024/04/02 02:03:59;;;;;;;12.23;3.72;;;;;;;15.16;79.74;99775.66;5029311;28;20140;-73
2024/04/02 02:06:25;;;;;;;15.23;4.68;;;;;;;15.43;80.61;99818.34;5029188;28;20407;-73
2024/04/02 02:08:50;;;;;;;15.52;4.72;;;;;;;15.46;80.58;99817.50;5029286;28;20112;-75
2024/04/02 02:11:16;;;;;;;20.83;5.03;;;;;;;15.43;80.26;99818.34;5028816;28;20036;-74
2024/04/02 02:13:41;;;;;;;24.48;5.18;;;;;;;15.37;79.08;99816.56;5029378;28;20396;-74
2024/04/02 02:16:07;;;;;;;15.75;4.00;;;;;;;15.41;79.36;99820.03;5030161;28;20492;-74
2024/04/02 02:18:32;;;;;;;16.80;4.57;;;;;;;15.37;77.99;99824.34;5057844;28;20044;-74
2024/04/02 02:20:59;;;;;;;22.05;4.75;;;;;;;15.12;77.85;99788.66;5029208;28;20075;-73
2024/04/02 02:23:26;;;;;;;20.48;4.93;;;;;;;15.02;77.78;99765.16;5029129;28;20045;-73
2024/04/02 02:25:52;;;;;;;16.33;4.60;;;;;;;15.14;78.79;99799.91;5018482;28;20045;-73
2024/04/02 02:28:18;;;;;;;19.73;4.43;;;;;;;15.01;78.62;99823.22;5028991;28;20075;-72
2024/04/02 02:30:44;;;;;;;16.95;4.13;;;;;;;14.71;78.56;99818.63;5029189;28;20040;-72
2024/04/02 02:33:10;;;;;;;15.05;3.72;;;;;;;14.64;78.62;99811.59;5028832;28;20561;-73
2024/04/02 02:35:37;;;;;;;19.20;4.55;;;;;;;14.59;79.38;99819.31;5028839;28;20069;-72
2024/04/02 02:38:03;;;;;;;11.52;4.47;;;;;;;14.49;79.80;99825.28;5028702;28;20040;-72
2024/04/02 02:40:30;;;;;;;15.55;3.88;;;;;;;14.03;79.43;99768.53;5028872;28;20033;-72
2024/04/02 02:42:56;;;;;;;13.77;3.75;;;;;;;14.17;79.24;99823.22;5025171;28;20064;-72
2024/04/02 02:45:22;;;;;;;14.65;3.63;;;;;;;13.93;80.56;99809.06;5029120;28;20041;-72
2024/04/02 02:47:47;;;;;;;15.88;4.20;;;;;;;13.93;80.76;99816.00;5029030;28;20045;-72
2024/04/02 02:50:13;;;;;;;17.17;4.30;;;;;;;13.79;80.63;99813.22;5029491;28;20032;-71
2024/04/02 02:52:38;;;;;;;21.08;4.93;;;;;;;13.58;80.73;99792.22;5029112;28;20493;-72
2024/04/02 02:55:04;;;;;;;13.18;4.15;;;;;;;13.64;81.23;99832.06;5029012;28;20041;-72
2024/04/02 02:57:30;;;;;;;14.30;4.00;;;;;;;13.53;82.25;99830.19;5028782;28;20036;-72
2024/04/02 02:59:55;;;;;;;16.13;4.30;;;;;;;13.53;82.78;99834.47;5029082;28;20083;-71
2024/04/02 03:02:21;;;;;;;15.80;3.40;;;;;;;13.51;82.85;99831.88;5028487;28;20033;-72
2024/04/02 03:04:50;;;;;;;14.52;4.47;;;;;;;13.48;83.02;99829.22;5029416;28;20468;-71
2024/04/02 03:07:15;;;;;;;16.63;4.00;;;;;;;13.42;82.96;99830.00;5028776;28;20033;-72
2024/04/02 03:09:41;;;;;;;19.92;4.32;;;;;;;13.44;82.53;99843.00;5028340;28;20710;-72
2024/04/02 03:12:07;;;;;;;18.55;4.00;;;;;;;13.43;82.54;99842.13;5028185;28;20420;-72
2024/04/02 03:14:33;;;;;;;15.85;4.03;;;;;;;13.41;82.21;99837.78;5017417;28;20561;-74
2024/04/02 03:16:58;;;;;;;20.38;4.53;;;;;;;13.58;81.35;99827.63;5029434;28;20030;-74
2024/04/02 03:19:24;;;;;;;14.73;3.90;;;;;;;13.60;81.85;99836.31;5028737;28;20495;-73
2024/04/02 03:21:49;;;;;;;13.40;3.33;;;;;;;13.45;81.03;99781.66;5027333;28;20030;-74
2024/04/02 03:24:15;;;;;;;19.88;4.53;;;;;;;13.72;82.43;99818.34;5028540;28;20498;-74
2024/04/02 03:26:40;;;;;;;15.25;3.80;;;;;;;13.73;80.49;99814.91;5028175;28;20110;-74
2024/04/02 03:29:06;;;;;;;19.50;4.43;;;;;;;13.73;80.69;99799.31;5028427;28;20026;-74
2024/04/02 03:31:31;;;;;;;15.27;4.10;;;;;;;13.62;81.12;99798.31;5028789;28;20025;-73
2024/04/02 03:33:57;;;;;;;17.90;4.22;;;;;;;13.70;80.74;99813.97;5028905;28;20475;-74
2024/04/02 03:36:24;;;;;;;24.98;4.65;;;;;;;13.77;80.45;99807.13;5028422;28;20472;-73
2024/04/02 03:38:50;;;;;;;17.13;4.03;;;;;;;13.58;80.69;99778.34;5028231;28;20043;-73
2024/04/02 03:41:16;;;;;;;21.58;4.90;;;;;;;13.30;81.55;99748.56;5028188;28;20026;-74
2024/04/02 03:43:43;;;;;;;17.35;4.35;;;;;;;13.48;81.58;99773.91;5028657;28;20032;-74
2024/04/02 03:46:10;;;;;;;24.90;4.65;;;;;;;13.49;81.96;99799.84;5016624;28;20042;-74
2024/04/02 03:48:36;;;;;;;18.80;4.45;;;;;;;13.27;82.84;99802.09;5016783;28;20049;-73
2024/04/02 03:51:02;;;;;;;16.83;3.97;;;;;;;13.10;83.48;99799.25;5020931;28;20042;-72
2024/04/02 03:53:28;;;;;;;16.20;4.10;;;;;;;13.02;84.43;99807.75;5019472;28;20100;-72
2024/04/02 03:56:02;;;;;;;16.70;3.92;;;;;;;12.94;84.01;99797.25;5018382;28;20129;-72
2024/04/02 03:58:29;;;;;;;18.75;4.25;;;;;;;13.04;83.98;99801.72;5020914;28;20042;-71
2024/04/02 04:00:56;;;;;;;18.27;4.68;;;;;;;12.70;84.80;99767.50;5019330;28;20087;-71
2024/04/02 04:03:25;;;;;;;15.23;4.07;;;;;;;12.91;85.42;99812.72;5002904;28;20512;-71
2024/04/02 04:06:01;;;;;;;14.38;4.50;;;;;;;12.76;86.00;99806.47;5017281;28;20036;-71
2024/04/02 04:08:27;;;;;;;15.80;4.15;;;;;;;12.79;85.87;99809.09;5019855;28;20033;-71
2024/04/02 04:10:54;;;;;;;17.02;4.47;;;;;;;12.78;86.03;99807.38;5019721;28;20120;-71
2024/04/02 04:13:22;;;;;;;17.13;4.82;;;;;;;12.66;85.91;99776.09;5023486;28;20041;-72
2024/04/02 04:15:57;;;;;;;16.50;4.90;;;;;;;12.83;87.69;99815.19;5020972;28;20053;-72
2024/04/02 04:18:24;;;;;;;21.30;4.45;;;;;;;12.75;86.50;99809.91;5013786;28;20040;-72
2024/04/02 04:21:01;;;;;;;15.55;3.65;;;;;;;12.66;86.76;99801.97;5017961;28;20040;-72
2024/04/02 04:23:27;;;;;;;17.95;4.65;;;;;;;12.84;86.67;99809.19;5024339;28;20552;-77
2024/04/02 04:26:01;;;;;;;21.75;4.72;;;;;;;12.74;88.12;99805.56;5031303;28;20068;-77
2024/04/02 04:28:29;;;;;;;15.93;4.90;;;;;;;12.86;87.62;99804.00;5031928;28;20061;-73
2024/04/02 04:30:56;;;;;;;27.75;4.65;;;;;;;12.79;87.13;99772.81;5029586;28;21026;-74
2024/04/02 04:33:22;;;;;;;22.52;5.40;;;;;;;13.07;87.46;99803.50;5031031;28;20419;-74
2024/04/02 04:35:48;;;;;;;19.52;4.57;;;;;;;12.92;87.49;99762.66;5031294;28;20033;-73
2024/04/02 04:38:15;;;;;;;20.58;5.35;;;;;;;13.23;87.15;99791.66;5031389;28;20040;-73
2024/04/02 04:40:41;;;;;;;25.38;5.25;;;;;;;13.35;87.17;99807.41;5029037;28;20041;-73
2024/04/02 04:43:07;;;;;;;21.55;5.25;;;;;;;13.46;86.99;99805.00;5030943;28;20032;-73
2024/04/02 04:45:33;;;;;;;16.13;4.88;;;;;;;13.56;86.24;99770.56;5031404;28;20044;-73
2024/04/02 04:47:59;;;;;;;19.35;5.53;;;;;;;13.78;87.60;99778.59;5029675;28;20033;-73
2024/04/02 04:50:25;;;;;;;47.92;7.10;;;;;;;13.92;87.60;99773.63;5031586;28;20794;-74
2024/04/02 04:52:53;;;;;;;12.73;4.22;;;;;;;13.78;88.64;99737.09;5030441;28;20112;-74
2024/04/02 04:55:19;;;;;;;34.55;5.75;;;;;;;14.13;89.76;99772.09;5030755;28;20115;-75
2024/04/02 04:57:44;;;;;;;22.90;5.43;;;;;;;14.20;89.37;99760.94;5030870;28;20045;-74
2024/04/02 05:00:12;;;;;;;36.78;6.05;;;;;;;13.90;89.13;99694.88;5031084;28;20377;-75
2024/04/02 05:02:38;;;;;;;23.77;4.85;;;;;;;14.29;89.64;99760.16;5028711;28;20067;-74
2024/04/02 05:05:03;;;;;;;19.02;4.50;;;;;;;14.35;89.16;99766.28;5030327;28;20072;-74
2024/04/02 05:07:29;;;;;;;17.27;4.30;;;;;;;14.50;90.76;99767.31;5030934;28;20026;-74
2024/04/02 05:09:55;;;;;;;19.80;4.30;;;;;;;14.36;95.07;99742.06;5030766;28;20470;-75
2024/04/02 05:12:20;;;;;;;22.65;5.13;;;;;;;14.26;94.93;99723.81;5030722;28;20025;-77
2024/04/02 05:14:46;;;;;;;13.65;4.60;;;;;;;14.61;94.49;99778.66;5030863;28;20040;-74
2024/04/02 05:17:12;;;;;;;16.48;5.38;;;;;;;14.63;93.00;99776.97;5029600;28;20091;-75
2024/04/02 05:19:38;;;;;;;26.90;5.57;;;;;;;14.65;91.49;99782.19;5046032;28;20052;-75
2024/04/02 05:22:06;;;;;;;26.45;5.45;;;;;;;14.59;87.48;99779.50;5030430;28;20499;-74
2024/04/02 05:24:33;;;;;;;19.63;4.43;;;;;;;14.40;85.96;99777.63;5030530;28;20072;-75
2024/04/02 05:26:59;;;;;;;20.83;4.03;;;;;;;14.38;86.95;99781.91;5020876;28;20041;-75
2024/04/02 05:29:25;;;;;;;18.35;4.47;;;;;;;14.41;87.94;99781.06;5030271;28;20021;-74
2024/04/02 05:31:50;;;;;;;17.80;4.38;;;;;;;14.35;87.76;99768.88;5029637;28;20036;-74
2024/04/02 05:34:16;;;;;;;18.13;4.97;;;;;;;14.44;88.78;99765.50;5034204;28;20021;-73
2024/04/02 05:36:42;;;;;;;28.30;5.60;;;;;;;14.51;88.61;99764.72;5025206;28;20034;-74
2024/04/02 05:39:08;;;;;;;19.05;4.97;;;;;;;14.59;88.37;99761.31;5029832;28;20068;-73
2024/04/02 05:41:33;;;;;;;20.58;5.55;;;;;;;14.62;88.22;99744.03;5032266;28;20077;-73
2024/04/02 05:43:59;;;;;;;25.77;5.45;;;;;;;14.87;87.10;99747.75;5036036;28;20037;-72
2024/04/02 05:46:24;;;;;;;17.98;5.45;;;;;;;14.93;88.04;99743.44;5031954;28;20029;-73
2024/04/02 05:48:50;;;;;;;16.48;4.55;;;;;;;15.10;87.90;99736.63;5039306;28;20061;-72
2024/04/02 05:51:16;;;;;;;21.80;5.55;;;;;;;15.39;85.85;99753.28;5030658;28;20029;-72
2024/04/02 05:53:44;;;;;;;22.33;6.43;;;;;;;15.68;83.09;99743.88;5030909;28;20104;-71
2024/04/02 05:56:09;;;;;;;29.48;5.30;;;;;;;16.02;80.23;99751.00;5043340;28;20590;-71
2024/04/02 05:58:35;;;;;;;23.40;4.88;;;;;;;16.27;78.92;99740.63;5036506;28;20152;-71
2024/04/02 06:01:05;;;;;;;27.30;6.32;;;;;;;16.39;78.92;99742.41;5033520;28;20475;-73
2024/04/02 06:03:31;;;;;;;22.10;5.70;;;;;;;16.29;78.84;99710.25;5030672;28;20029;-73
2024/04/02 06:05:57;;;;;;;20.08;5.25;;;;;;;16.58;78.87;99748.50;5029123;28;20025;-72
2024/04/02 06:08:23;;;;;;;20.30;5.35;;;;;;;16.77;78.49;99751.97;5032521;28;20030;-71
2024/04/02 06:10:48;;;;;;;20.77;5.10;;;;;;;16.63;77.05;99713.72;5028462;28;20052;-72
2024/04/02 06:13:14;;;;;;;27.45;5.15;;;;;;;17.04;76.72;99752.88;5029216;28;20404;-72
2024/04/02 06:15:39;;;;;;;25.27;5.05;;;;;;;17.14;76.11;99755.44;5029403;28;20022;-72
2024/04/02 06:18:05;;;;;;;22.23;5.55;;;;;;;17.32;74.95;99747.59;5029077;28;20116;-72
2024/04/02 06:20:31;;;;;;;25.80;5.90;;;;;;;17.36;75.81;99733.66;5029503;28;20025;-72
2024/04/02 06:22:56;;;;;;;21.08;5.55;;;;;;;17.45;77.70;99729.28;5029972;28;20053;-72
2024/04/02 06:25:22;;;;;;;21.63;4.55;;;;;;;17.60;76.01;99744.03;5027697;28;20048;-72
2024/04/02 06:27:47;;;;;;;24.33;4.63;;;;;;;17.73;76.42;99734.44;5029439;28;20061;-71
2024/04/02 06:30:13;;;;;;;21.65;4.57;;;;;;;17.88;74.65;99738.72;5029294;28;20033;-72
2024/04/02 06:32:39;;;;;;;20.77;5.07;;;;;;;17.91;77.73;99712.56;5029252;28;20365;-72
2024/04/02 06:35:04;;;;;;;24.95;4.70;;;;;;;18.18;73.19;99739.47;5029221;28;20091;-72
2024/04/02 06:37:30;;;;;;;30.48;6.28;;;;;;;18.24;73.36;99728.97;5029850;28;20030;-72
2024/04/02 06:39:56;;;;;;;23.23;4.88;;;;;;;18.44;74.39;99748.84;5028773;28;20041;-72
2024/04/02 06:42:22;;;;;;;24.73;4.82;;;;;;;18.59;71.64;99748.75;5029219;28;20396;-72
2024/04/02 06:44:49;;;;;;;26.10;5.65;;;;;;;18.74;69.20;99754.72;5028892;28;20036;-72
2024/04/02 06:47:14;;;;;;;23.85;5.43;;;;;;;18.79;70.38;99758.19;5029997;28;20025;-72
2024/04/02 06:49:40;;;;;;;31.65;6.03;;;;;;;18.77;71.19;99739.03;5029095;28;20112;-72
2024/04/02 06:52:05;;;;;;;22.95;5.93;;;;;;;18.86;70.83;99757.25;5029234;28;20480;-72
2024/04/02 06:54:31;;;;;;;21.25;5.43;;;;;;;18.80;70.74;99725.91;5028732;28;20033;-71
2024/04/02 06:56:57;;;;;;;23.63;5.30;;;;;;;18.87;69.21;99737.22;5028724;28;20456;-72
2024/04/02 06:59:22;;;;;;;14.80;3.97;;;;;;;18.99;72.22;99738.84;5029245;28;20018;-71
2024/04/02 07:01:48;;;;;;;18.73;4.75;;;;;;;19.02;72.32;99734.47;5029960;28;20021;-72
2024/04/02 07:04:13;;;;;;;17.58;4.57;;;;;;;19.07;73.28;99719.59;5028869;28;20033;-71
2024/04/02 07:06:39;;;;;;;17.00;4.07;;;;;;;19.02;76.08;99699.59;5028719;28;20061;-71
2024/04/02 07:09:05;;;;;;;23.23;4.63;;;;;;;19.16;74.53;99707.31;5027822;28;20025;-71
2024/04/02 07:11:30;;;;;;;20.80;4.38;;;;;;;19.13;75.48;99691.63;5028546;28;20028;-72
2024/04/02 07:13:56;;;;;;;21.85;4.97;;;;;;;19.18;73.48;99702.94;5028688;28;20083;-71
2024/04/02 07:16:21;;;;;;;24.65;5.03;;;;;;;19.28;75.77;99735.06;5026699;28;20112;-71
2024/04/02 07:18:47;;;;;;;20.73;5.05;;;;;;;19.31;79.71;99733.28;5028496;28;20034;-71
2024/04/02 07:21:13;;;;;;;23.08;4.93;;;;;;;19.37;77.47;99719.28;5028827;28;20030;-71
2024/04/02 07:23:40;;;;;;;22.90;5.28;;;;;;;19.70;74.58;99756.41;5030634;28;20068;-71
2024/04/02 07:26:06;;;;;;;11.95;3.63;;;;;;;19.83;72.96;99742.31;5032465;28;20116;-72
2024/04/02 07:28:32;;;;;;;15.50;5.20;;;;;;;19.99;76.44;99755.25;5032232;28;20127;-71
2024/04/02 07:30:58;;;;;;;22.45;6.28;;;;;;;19.95;76.69;99728.22;5033048;28;20021;-71
2024/04/02 07:33:24;;;;;;;27.65;5.32;;;;;;;20.51;66.40;99758.84;5023266;28;20037;-70
2024/04/02 07:35:54;;;;;;;26.67;5.93;;;;;;;20.75;66.51;99752.41;5030298;28;20099;-70
2024/04/02 07:38:19;;;;;;;38.45;5.90;;;;;;;21.01;62.72;99757.19;5031614;28;20029;-70
2024/04/02 07:40:45;;;;;;;29.77;5.55;;;;;;;21.14;61.77;99741.22;5032122;28;20120;-71
2024/04/02 07:43:10;;;;;;;28.80;5.18;;;;;;;21.53;59.79;99746.59;5029627;28;20034;-70
2024/04/02 07:45:37;;;;;;;27.42;5.53;;;;;;;21.73;60.96;99753.25;5030120;28;20438;-71
2024/04/02 07:48:03;;;;;;;36.95;6.60;;;;;;;21.90;59.47;99740.63;5032023;28;20063;-70
2024/04/02 07:50:34;;;;;;;29.85;6.80;;;;;;;22.23;56.57;99739.91;5032341;28;20033;-71
2024/04/02 07:53:00;;;;;;;25.90;5.20;;;;;;;22.51;52.76;99736.69;5032207;28;20032;-70
2024/04/02 07:55:26;;;;;;;26.80;6.07;;;;;;;22.64;52.95;99706.53;5030564;28;20044;-70
2024/04/02 07:57:52;;;;;;;30.02;5.10;;;;;;;22.87;50.73;99724.38;5031845;28;20037;-70
2024/04/02 08:00:18;;;;;;;34.47;6.10;;;;;;;22.85;52.68;99689.31;5032286;28;20494;-70
2024/04/02 08:02:47;;;;;;;24.63;6.45;;;;;;;23.16;49.73;99712.22;5031380;28;20026;-70
2024/04/02 08:05:13;;;;;;;23.05;5.65;;;;;;;23.20;48.06;99676.16;5031785;28;20041;-71
2024/04/02 08:07:48;;;;;;;43.60;6.15;;;;;;;23.65;43.42;99702.09;5031899;28;20026;-71
2024/04/02 08:10:14;;;;;;;38.70;7.03;;;;;;;23.85;41.23;99683.03;5031824;28;20104;-71
2024/04/02 08:12:40;;;;;;;23.58;5.05;;;;;;;24.02;41.73;99682.53;5031630;28;20116;-71
2024/04/02 08:15:06;;;;;;;27.73;5.68;;;;;;;24.28;40.38;99691.41;5031775;28;20041;-71
2024/04/02 08:17:32;;;;;;;48.55;7.32;;;;;;;24.38;38.82;99684.91;5031904;28;20057;-73
2024/04/02 08:19:57;;;;;;;74.65;9.48;;;;;;;24.29;38.56;99661.47;5031619;28;20506;-72
2024/04/02 08:22:23;;;;;;;25.23;5.13;;;;;;;24.47;39.67;99660.00;5031439;28;20025;-70
2024/04/02 08:25:01;;;;;;;28.88;6.03;;;;;;;24.60;38.80;99662.22;5031219;28;20054;-72
2024/04/02 08:27:27;;;;;;;36.53;6.57;;;;;;;24.64;39.69;99654.16;5027589;28;20419;-71
2024/04/02 08:29:53;;;;;;;31.95;5.90;;;;;;;24.53;40.08;99611.44;5031457;28;20026;-71
2024/04/02 08:32:19;;;;;;;32.90;6.05;;;;;;;24.73;39.24;99637.16;5029251;28;20036;-72
2024/04/02 08:34:45;;;;;;;33.17;5.50;;;;;;;24.79;38.86;99622.91;5023597;28;20044;-73
2024/04/02 08:37:11;;;;;;;38.67;6.38;;;;;;;24.91;38.90;99619.81;5027490;28;20041;-72
2024/04/02 08:39:36;;;;;;;75.72;10.02;;;;;;;24.93;36.89;99625.03;5022921;28;20079;-71
2024/04/02 08:42:03;;;;;;;33.67;5.88;;;;;;;24.99;36.25;99615.09;5031048;28;20065;-72
2024/04/02 08:44:33;;;;;;;23.95;5.20;;;;;;;25.13;37.15;99625.16;5027069;28;20044;-71
2024/04/02 08:46:59;;;;;;;;;;;;;;;25.31;36.07;99635.97;5031506;28;20037;-72
2024/04/02 08:49:25;;;;;;;26.08;5.82;;;;;;;25.44;35.52;99631.13;5030634;28;19951;-71
2024/04/02 08:51:51;;;;;;;41.72;7.72;;;;;;;25.47;34.37;99625.72;5030857;28;20455;-71
2024/04/02 08:54:17;;;;;;;35.88;6.22;;;;;;;25.78;34.24;99635.09;5030709;28;20044;-71
2024/04/02 08:56:43;;;;;;;35.35;6.25;;;;;;;25.84;33.34;99618.97;5031424;28;20037;-72
2024/04/02 08:59:11;;;;;;;33.40;5.90;;;;;;;25.82;33.77;99599.66;5030745;28;20065;-72
2024/04/02 09:01:37;;;;;;;56.17;8.23;;;;;;;26.04;33.42;99627.91;5039050;28;20120;-72
2024/04/02 09:04:03;;;;;;;30.45;5.68;;;;;;;26.13;33.79;99625.78;5026269;28;20127;-71
2024/04/02 09:06:30;;;;;;;30.63;6.70;;;;;;;26.17;33.82;99615.94;5030302;28;20030;-71
2024/04/02 09:08:58;;;;;;;28.92;6.10;;;;;;;26.06;34.32;99618.16;5030317;28;20087;-71
2024/04/02 09:11:24;;;;;;;37.60;6.88;;;;;;;26.03;32.63;99605.88;5030221;28;20515;-71
2024/04/02 09:13:50;;;;;;;28.20;5.40;;;;;;;26.20;32.88;99621.09;5029277;28;20025;-71
2024/04/02 09:16:16;;;;;;;41.03;6.78;;;;;;;26.32;32.05;99630.31;5023682;28;20053;-72
2024/04/02 09:18:43;;;;;;;36.97;5.93;;;;;;;26.14;32.14;99589.59;5027229;28;20065;-72
2024/04/02 09:21:12;;;;;;;40.22;7.75;;;;;;;26.22;33.28;99618.38;5030552;28;20029;-71
2024/04/02 09:23:38;;;;;;;34.97;6.90;;;;;;;26.23;32.69;99613.03;5028432;28;20042;-71
2024/04/02 09:26:07;;;;;;;27.90;5.03;;;;;;;26.04;34.40;99599.66;5029861;28;20103;-72
2024/04/02 09:28:39;;;;;;;31.60;5.82;;;;;;;25.98;33.04;99600.78;5029973;28;20087;-72
2024/04/02 09:31:05;;;;;;;33.10;7.45;;;;;;;25.82;33.08;99589.97;5030755;28;20099;-71
2024/04/02 09:33:31;;;;;;;41.35;6.55;;;;;;;25.76;33.79;99605.22;5029909;28;20025;-71
2024/04/02 09:36:05;;;;;;;26.50;6.28;;;;;;;25.74;33.63;99612.34;5029711;28;20445;-70
2024/04/02 09:38:35;;;;;;;43.50;6.68;;;;;;;25.79;33.68;99605.09;5025796;28;20029;-72
2024/04/02 09:41:02;;;;;;;34.20;5.82;;;;;;;26.06;34.06;99623.47;5028344;28;20036;-71
2024/04/02 09:43:30;;;;;;;41.33;5.95;;;;;;;26.19;33.72;99603.50;5030435;28;20033;-71
2024/04/02 09:46:01;;;;;;;26.40;5.03;;;;;;;26.29;34.17;99594.25;5028856;28;20029;-71
2024/04/02 09:48:33;;;;;;;36.13;6.28;;;;;;;26.20;33.91;99591.97;5029650;28;20109;-70
2024/04/02 09:50:59;;;;;;;25.90;5.53;;;;;;;26.21;33.95;99599.00;5029764;28;20042;-70
2024/04/02 09:53:26;;;;;;;26.65;6.03;;;;;;;26.36;33.88;99594.84;5027161;28;20424;-71
2024/04/02 09:55:54;;;;;;;25.30;5.53;;;;;;;26.30;34.00;99588.03;5029201;28;20047;-70
2024/04/02 09:58:19;;;;;;;30.40;6.07;;;;;;;26.37;33.76;99585.13;5026154;28;20474;-70
2024/04/02 10:00:49;;;;;;;22.42;4.72;;;;;;;26.54;34.04;99587.03;5029219;28;20679;-71
2024/04/02 10:03:15;;;;;;;34.85;6.00;;;;;;;26.56;34.48;99579.91;5029617;28;20090;-70
2024/04/02 10:05:41;;;;;;;29.60;4.65;;;;;;;26.58;35.87;99567.44;5026448;28;20443;-71
2024/04/02 10:08:07;;;;;;;33.00;6.25;;;;;;;26.73;35.71;99573.84;5022748;28;20037;-70
2024/04/02 10:10:39;;;;;;;24.92;4.90;;;;;;;26.47;35.49;99549.41;5036083;28;20172;-71
2024/04/02 10:13:07;;;;;;;21.35;5.53;;;;;;;26.73;34.43;99558.84;5027318;28;20373;-71
2024/04/02 10:15:34;;;;;;;24.33;5.97;;;;;;;26.80;34.85;99531.19;5027563;28;20032;-70
2024/04/02 10:18:00;;;;;;;25.75;5.88;;;;;;;27.08;34.82;99543.16;5025782;28;20037;-71
2024/04/02 10:20:29;;;;;;;17.33;4.38;;;;;;;27.28;33.40;99544.88;5028936;28;20478;-71
2024/04/02 10:22:55;;;;;;;21.67;4.93;;;;;;;27.32;34.79;99556.19;5028923;28;20404;-71
2024/04/02 10:25:23;;;;;;;29.27;5.32;;;;;;;27.19;35.00;99542.66;5027616;28;20040;-71
2024/04/02 10:27:51;;;;;;;29.85;5.43;;;;;;;27.20;35.34;99538.22;5026898;28;20041;-71
2024/04/02 10:30:20;;;;;;;29.57;5.57;;;;;;;27.15;35.29;99535.78;5026396;28;20040;-71
2024/04/02 10:32:46;;;;;;;31.85;5.82;;;;;;;27.41;34.96;99536.38;5025028;28;20065;-71
2024/04/02 10:35:25;;;;;;;30.40;5.45;;;;;;;27.49;35.11;99534.22;5026977;28;20048;-72
2024/04/02 10:37:57;;;;;;;26.67;4.57;;;;;;;27.52;34.14;99542.00;5023526;28;20064;-72
2024/04/02 10:40:24;;;;;;;24.73;5.22;;;;;;;27.63;34.42;99535.31;5025683;28;20025;-71
2024/04/02 10:42:51;;;;;;;24.38;5.57;;;;;;;27.55;36.30;99531.28;5024226;28;20029;-72
2024/04/02 10:45:18;;;;;;;20.27;5.38;;;;;;;27.42;36.35;99527.50;5020302;28;20128;-71
2024/04/02 10:47:48;;;;;;;28.90;5.97;;;;;;;27.03;36.38;99464.81;5023415;28;20501;-72
2024/04/02 10:50:15;;;;;;;23.38;4.68;;;;;;;27.33;35.17;99522.56;5024432;28;20071;-71
2024/04/02 10:52:40;;;;;;;20.02;5.72;;;;;;;27.38;35.89;99520.59;5020039;28;20031;-71
2024/04/02 10:55:06;;;;;;;25.10;5.53;;;;;;;27.27;37.18;99518.44;5028730;28;20102;-71
2024/04/02 10:57:35;;;;;;;23.45;5.63;;;;;;;27.13;37.62;99501.41;5031837;28;20025;-72
2024/04/02 11:00:04;;;;;;;;;;;;;;;27.08;37.31;99510.53;5033365;28;20108;-72
2024/04/02 11:02:31;;;;;;;30.40;5.72;;;;;;;26.92;37.80;99481.25;5032728;28;19917;-72
2024/04/02 11:04:57;;;;;;;22.20;4.88;;;;;;;27.08;37.78;99481.38;5030515;28;20029;-72
2024/04/02 11:07:29;;;;;;;23.83;5.15;;;;;;;27.29;36.68;99503.31;5029242;28;20037;-71
2024/04/02 11:09:55;;;;;;;29.17;5.95;;;;;;;27.40;36.42;99477.22;5032727;28;20079;-72
2024/04/02 11:12:21;;;;;;;34.13;5.82;;;;;;;27.62;37.60;99480.59;5044682;28;20084;-71
2024/04/02 11:14:52;;;;;;;32.63;5.65;;;;;;;27.67;34.97;99457.34;5033194;28;20072;-71
2024/04/02 11:17:18;;;;;;;24.75;5.63;;;;;;;27.76;33.38;99464.84;5016508;28;20025;-71
2024/04/02 11:19:44;;;;;;;14.68;3.90;;;;;;;27.71;33.46;99458.91;5032011;28;20017;-71
2024/04/02 11:24:58;;;;;;;21.17;5.45;;;;;;;27.86;33.68;99442.19;5029317;28;20075;-73